Time;durP1;ratioP1;P1;durP2;ratioP2;P2;SDS_P1;SDS_P2;PMS_P1;PMS_P2;Temp;Humidity;BMP_temperature;BMP_pressure;BME280_temperature;BME280_humidity;BME280_pressure;Samples;Min_cycle;Max_cycle;Signal;HPM_P1;HPM_P2
2021/04/11 00:01:37;;;;;;;4.38;3.00;;;11.90;47.70;;;10.47;48.67;95460.91;4956852;28;20042;-75
2021/04/11 00:04:03;;;;;;;6.22;3.15;;;11.90;47.40;;;10.41;48.85;95465.19;5002883;28;20030;-75
2021/04/11 00:06:28;;;;;;;5.20;3.08;;;11.80;47.40;;;10.39;48.33;95464.53;4986340;28;20396;-76
2021/04/11 00:08:54;;;;;;;7.13;3.00;;;11.80;47.30;;;10.36;49.03;95459.69;4968935;28;20077;-75
2021/04/11 00:11:21;;;;;;;4.68;2.70;;;11.80;47.40;;;10.37;49.24;95465.75;4985640;28;20077;-73
2021/04/11 00:13:48;;;;;;;8.48;2.80;;;11.80;47.30;;;10.37;48.27;95461.31;4970894;28;20539;-74
2021/04/11 00:16:14;;;;;;;3.83;2.72;;;11.80;47.20;;;10.37;48.77;95460.50;4969560;28;20038;-74
2021/04/11 00:18:40;;;;;;;4.93;2.80;;;11.80;47.20;;;10.35;48.17;95452.81;4985747;28;20050;-75
2021/04/11 00:21:06;;;;;;;6.82;2.88;;;11.80;47.20;;;10.35;47.93;95454.66;4970555;28;20365;-74
2021/04/11 00:23:31;;;;;;;5.75;2.67;;;11.80;46.70;;;10.35;49.07;95452.00;4946002;28;20069;-76
2021/04/11 00:25:57;;;;;;;6.18;2.53;;;11.80;46.70;;;10.32;48.53;95442.72;4959507;28;20153;-75
2021/04/11 00:28:23;;;;;;;5.90;2.65;;;11.80;46.40;;;10.31;48.52;95440.28;4945366;28;20045;-74
2021/04/11 00:30:49;;;;;;;4.50;2.65;;;11.80;46.60;;;10.30;47.85;95447.38;4983941;28;20747;-74
2021/04/11 00:33:38;;;;;;;5.75;2.88;;;11.80;46.60;;;10.29;48.73;95443.13;4985071;28;20074;-75
2021/04/11 00:36:10;;;;;;;3.72;2.55;;;11.80;46.80;;;10.27;48.16;95436.47;4966708;28;20553;-76
2021/04/11 00:38:36;;;;;;;6.43;2.28;;;11.80;46.60;;;10.25;47.96;95439.28;4982463;28;20443;-75
2021/04/11 00:41:29;;;;;;;4.60;2.95;;;11.80;46.80;;;10.25;48.94;95436.66;4980184;28;20035;-73
2021/04/11 00:43:55;;;;;;;5.72;3.30;;;11.70;48.00;;;10.22;48.84;95441.53;4992565;28;20036;-75
2021/04/11 00:46:31;;;;;;;4.45;2.75;;;11.70;48.60;;;10.17;51.04;95434.19;4953401;28;20080;-74
2021/04/11 00:48:59;;;;;;;8.90;3.08;;;11.60;49.80;;;10.13;49.67;95438.25;4966635;28;20425;-74
2021/04/11 00:51:27;;;;;;;6.15;2.80;;;11.60;50.30;;;10.09;49.97;95426.53;4950257;28;20027;-74
2021/04/11 00:54:04;;;;;;;4.68;2.90;;;11.60;50.10;;;10.06;51.00;95427.75;4976374;28;20134;-75
2021/04/11 00:56:31;;;;;;;5.13;2.97;;;11.50;50.00;;;10.01;50.27;95430.16;4934603;28;20035;-74
2021/04/11 00:58:57;;;;;;;6.07;2.80;;;11.50;49.90;;;9.99;50.34;95431.38;4967355;28;20058;-78
2021/04/11 01:01:22;;;;;;;6.18;3.38;;;11.40;49.90;;;9.92;50.30;95425.28;4959226;28;20050;-74
2021/04/11 01:03:49;;;;;;;5.20;3.00;;;11.30;50.10;;;9.87;50.29;95419.84;4965750;28;20038;-77
2021/04/11 01:06:25;;;;;;;6.88;3.38;;;11.40;51.00;;;9.80;52.40;95419.84;4965485;28;20173;-74
2021/04/11 01:08:51;;;;;;;5.80;3.25;;;11.30;51.90;;;9.76;50.63;95416.81;4983226;28;20140;-74
2021/04/11 01:11:24;;;;;;;5.72;3.05;;;11.20;51.80;;;9.70;51.52;95422.84;4968791;28;20062;-74
2021/04/11 01:13:55;;;;;;;5.93;3.33;;;11.20;51.00;;;9.66;51.59;95423.44;4966278;28;20097;-75
2021/04/11 01:16:20;;;;;;;4.72;3.00;;;11.10;51.30;;;9.62;51.07;95428.28;4951921;28;20388;-76
2021/04/11 01:18:49;;;;;;;5.10;3.05;;;11.10;50.80;;;9.57;51.35;95422.84;4953574;28;20043;-77
2021/04/11 01:21:30;;;;;;;4.47;3.15;;;11.10;50.30;;;9.55;52.36;95419.59;4984134;28;20038;-74
2021/04/11 01:24:48;;;;;;;6.80;3.03;;;11.10;50.80;;;9.49;52.78;95421.19;4971940;28;20034;-76
2021/04/11 01:27:18;;;;;;;5.88;2.95;;;11.00;51.10;;;9.46;51.70;95420.78;4962712;28;20074;-73
2021/04/11 01:29:44;;;;;;;5.47;2.92;;;11.00;51.30;;;9.44;50.90;95422.78;4934533;28;20448;-75
2021/04/11 01:32:10;;;;;;;7.72;3.00;;;11.00;51.70;;;9.42;51.70;95425.63;4941402;28;20119;-74
2021/04/11 01:34:37;;;;;;;4.22;2.40;;;11.00;51.50;;;9.38;51.43;95418.34;5000359;28;20407;-73
2021/04/11 01:37:04;;;;;;;6.80;3.35;;;11.00;51.20;;;9.37;51.38;95421.97;4954896;28;20034;-74
2021/04/11 01:39:35;;;;;;;6.43;3.63;;;10.90;51.30;;;9.35;51.23;95421.38;4952597;28;20046;-74
2021/04/11 01:42:00;;;;;;;4.55;3.00;;;10.90;50.70;;;9.30;51.28;95410.66;4970595;28;20057;-73
2021/04/11 01:44:29;;;;;;;5.60;2.60;;;10.80;50.20;;;9.30;51.10;95415.91;4957643;28;20357;-74
2021/04/11 01:46:55;;;;;;;5.13;2.90;;;10.80;50.00;;;9.30;50.76;95405.41;4944360;28;20405;-73
2021/04/11 01:49:21;;;;;;;4.88;2.83;;;10.80;49.40;;;9.29;50.46;95401.19;4949501;28;20038;-73
2021/04/11 01:51:51;;;;;;;5.35;2.97;;;10.80;49.30;;;9.29;50.86;95403.78;4955213;28;20045;-74
2021/04/11 01:54:24;;;;;;;6.30;3.03;;;10.80;49.30;;;9.28;50.92;95391.66;4964430;28;20129;-74
2021/04/11 01:56:50;;;;;;;4.68;2.83;;;10.90;49.20;;;9.26;50.20;95398.91;4965377;28;20138;-76
2021/04/11 01:59:18;;;;;;;5.07;2.67;;;10.80;49.90;;;9.21;50.41;95400.31;4953283;28;20043;-73
2021/04/11 02:01:47;;;;;;;5.28;2.95;;;10.80;49.70;;;9.20;50.60;95390.84;4948717;28;20042;-75
2021/04/11 02:04:13;;;;;;;4.78;3.00;;;10.80;49.40;;;9.19;50.16;95399.72;4961898;28;20042;-73
2021/04/11 02:06:50;;;;;;;7.60;2.63;;;10.70;49.50;;;9.16;51.33;95397.50;4983726;28;20394;-74
2021/04/11 02:09:25;;;;;;;4.47;2.50;;;10.70;49.40;;;9.16;50.98;95394.88;4985448;28;20038;-73
2021/04/11 02:11:51;;;;;;;5.45;2.83;;;10.60;49.50;;;9.15;50.39;95388.00;4998990;28;20512;-73
2021/04/11 02:14:19;;;;;;;5.00;3.10;;;10.70;49.60;;;9.13;50.71;95379.53;5000852;28;20090;-73
2021/04/11 02:16:45;;;;;;;7.68;2.92;;;10.60;50.20;;;9.12;50.48;95388.41;4984031;28;20034;-72
2021/04/11 02:19:19;;;;;;;6.07;3.15;;;10.60;51.00;;;9.12;51.61;95393.66;4934037;28;20445;-73
2021/04/11 02:21:53;;;;;;;6.28;2.78;;;10.60;50.80;;;9.09;51.75;95386.16;4949077;28;20401;-73
2021/04/11 02:24:19;;;;;;;5.30;2.60;;;10.60;50.40;;;9.06;51.10;95388.38;4962375;28;20041;-74
2021/04/11 02:26:45;;;;;;;4.90;2.70;;;10.60;50.00;;;9.06;51.04;95377.91;4983297;28;20047;-73
2021/04/11 02:29:18;;;;;;;3.88;2.75;;;10.60;49.90;;;9.05;51.57;95382.34;4968192;28;20062;-73
2021/04/11 02:31:43;;;;;;;3.97;2.85;;;10.60;49.90;;;9.06;50.80;95386.56;4937492;28;20473;-73
2021/04/11 02:34:23;;;;;;;4.72;3.00;;;10.60;49.90;;;9.06;51.68;95383.94;4975311;28;20190;-73
2021/04/11 02:36:54;;;;;;;5.32;2.55;;;10.60;49.80;;;9.06;51.42;95378.69;4984316;28;20038;-73
2021/04/11 02:39:27;;;;;;;6.25;3.38;;;10.60;49.80;;;9.06;50.99;95383.13;4952622;28;20050;-73
2021/04/11 02:41:53;;;;;;;5.28;3.08;;;10.60;49.80;;;9.06;50.82;95377.91;4940973;28;20122;-76
2021/04/11 02:44:19;;;;;;;6.45;3.25;;;10.60;49.90;;;9.05;51.01;95382.34;4950432;28;20027;-73
2021/04/11 02:46:45;;;;;;;5.50;2.97;;;10.60;50.10;;;9.04;51.14;95379.88;4966179;28;20545;-74
2021/04/11 02:49:13;;;;;;;5.88;3.25;;;10.60;50.00;;;9.04;50.68;95385.13;4984040;28;20505;-75
2021/04/11 02:51:39;;;;;;;7.70;3.13;;;10.60;50.00;;;9.05;50.93;95384.94;4958131;28;20038;-74
2021/04/11 02:54:07;;;;;;;7.55;3.30;;;10.70;50.00;;;9.02;50.94;95393.19;4983169;28;20393;-74
2021/04/11 02:56:33;;;;;;;6.32;3.22;;;10.60;49.80;;;9.04;50.96;95382.50;4967894;28;20539;-76
2021/04/11 02:58:59;;;;;;;5.57;3.40;;;10.60;50.40;;;9.02;51.12;95376.66;4966911;28;20038;-74
2021/04/11 03:01:37;;;;;;;7.05;3.50;;;10.60;50.80;;;9.02;51.92;95380.06;4972263;28;20134;-73
2021/04/11 03:04:02;;;;;;;5.00;3.08;;;10.60;50.80;;;9.00;50.99;95384.72;4968326;28;20058;-75
2021/04/11 03:06:32;;;;;;;5.68;2.85;;;10.60;50.70;;;8.99;51.96;95383.09;4950215;28;20089;-73
2021/04/11 03:09:01;;;;;;;7.22;3.38;;;10.60;50.80;;;8.97;51.33;95382.47;4984165;28;20050;-74
2021/04/11 03:11:40;;;;;;;4.85;3.28;;;10.60;50.90;;;8.93;52.64;95378.63;4976309;28;20031;-74
2021/04/11 03:14:07;;;;;;;5.43;3.35;;;10.60;51.10;;;8.90;51.88;95379.84;4964451;28;20049;-74
2021/04/11 03:16:34;;;;;;;5.75;3.17;;;10.50;51.00;;;8.88;51.28;95381.03;4948203;28;20101;-74
2021/04/11 03:18:59;;;;;;;6.35;3.50;;;10.50;50.70;;;8.88;51.34;95375.81;4965415;28;20034;-74
2021/04/11 03:21:25;;;;;;;5.75;3.30;;;10.50;50.60;;;8.88;51.88;95375.81;4981794;28;20034;-75
2021/04/11 03:23:52;;;;;;;4.85;2.83;;;10.50;51.00;;;8.88;51.75;95370.56;4961265;28;20508;-77
2021/04/11 03:26:22;;;;;;;6.22;3.10;;;10.50;50.90;;;8.85;51.86;95366.53;4968038;28;20505;-74
2021/04/11 03:29:16;;;;;;;4.82;3.08;;;10.50;50.70;;;8.84;52.65;95366.72;4976463;28;20492;-74
2021/04/11 03:31:50;;;;;;;5.38;2.95;;;10.50;50.90;;;8.82;52.28;95366.06;4970664;28;20485;-77
2021/04/11 03:34:16;;;;;;;4.43;2.88;;;10.50;50.90;;;8.82;51.60;95360.81;4955141;28;20104;-75
2021/04/11 03:36:41;;;;;;;5.40;3.05;;;10.40;50.70;;;8.82;51.62;95360.81;4970611;28;20579;-73
2021/04/11 03:39:08;;;;;;;5.93;3.30;;;10.40;50.80;;;8.79;51.75;95367.28;4952817;28;20307;-73
2021/04/11 03:41:35;;;;;;;7.20;3.55;;;10.40;51.30;;;8.76;52.41;95366.88;4964220;28;20034;-77
2021/04/11 03:44:05;;;;;;;5.88;3.05;;;10.50;51.90;;;8.76;52.68;95361.63;4973783;28;20039;-75
2021/04/11 03:47:05;;;;;;;5.22;2.88;;;10.40;51.90;;;8.73;53.62;95362.00;4965749;28;20042;-73
2021/04/11 03:49:42;;;;;;;9.20;3.30;;;10.40;52.40;;;8.70;53.82;95367.66;4966781;28;20624;-75
2021/04/11 03:52:55;;;;;;;5.82;3.28;;;10.30;52.60;;;8.68;53.73;95364.41;4983925;28;20054;-73
2021/04/11 03:55:23;;;;;;;6.53;2.88;;;10.30;52.50;;;8.62;52.54;95367.81;4967290;28;20099;-75
2021/04/11 03:57:53;;;;;;;5.55;3.17;;;10.20;51.60;;;8.57;52.52;95369.19;4967282;28;20038;-75
2021/04/11 04:00:52;;;;;;;6.38;3.25;;;10.20;51.60;;;8.54;53.34;95369.59;4964947;28;20035;-74
2021/04/11 04:03:21;;;;;;;5.93;3.35;;;10.20;51.50;;;8.52;52.49;95376.03;4983881;28;20528;-73
2021/04/11 04:05:47;;;;;;;5.82;3.08;;;10.10;51.80;;;8.50;52.69;95370.97;4986098;28;20129;-73
2021/04/11 04:08:13;;;;;;;6.65;3.47;;;10.10;52.50;;;8.45;52.93;95370.75;4970085;28;20119;-75
2021/04/11 04:10:45;;;;;;;5.22;3.47;;;10.00;52.70;;;8.43;53.83;95378.00;4951017;28;20034;-74
2021/04/11 04:13:31;;;;;;;4.63;3.10;;;10.00;52.90;;;8.39;53.81;95376.78;4952272;28;20038;-73
2021/04/11 04:16:03;;;;;;;5.82;3.83;;;10.00;52.80;;;8.35;54.22;95375.53;4963900;28;20061;-74
2021/04/11 04:18:39;;;;;;;5.47;3.33;;;10.00;52.70;;;8.34;54.02;95379.16;4987715;28;20042;-73
2021/04/11 04:21:39;;;;;;;5.97;3.50;;;9.90;53.10;;;8.32;54.99;95378.50;4984670;28;20038;-74
2021/04/11 04:24:22;;;;;;;6.75;3.58;;;9.90;53.80;;;8.30;54.74;95381.31;4976540;28;20081;-76
2021/04/11 04:26:51;;;;;;;4.78;3.28;;;9.80;54.40;;;8.28;53.70;95385.13;4953687;28;20035;-74
2021/04/11 04:29:31;;;;;;;5.05;3.40;;;9.80;54.70;;;8.23;56.25;95388.34;4951824;28;20035;-75
2021/04/11 04:32:12;;;;;;;4.70;3.67;;;9.70;55.70;;;8.18;56.73;95384.69;4973792;28;20027;-74
2021/04/11 04:35:14;;;;;;;5.07;3.40;;;9.70;56.20;;;8.15;56.94;95385.88;4969998;28;20653;-73
2021/04/11 04:37:43;;;;;;;6.65;3.58;;;9.70;56.60;;;8.12;55.75;95391.47;4967561;28;20258;-73
2021/04/11 04:40:38;;;;;;;5.75;3.25;;;9.70;56.50;;;8.11;55.38;95389.03;4977917;28;20109;-74
2021/04/11 04:43:23;;;;;;;6.47;3.88;;;9.80;56.00;;;8.09;56.94;95396.28;4969065;28;20037;-75
2021/04/11 04:46:12;;;;;;;7.10;3.35;;;9.70;56.50;;;8.08;57.83;95389.41;4963710;28;20050;-74
2021/04/11 04:48:47;;;;;;;6.53;3.42;;;9.70;56.60;;;8.07;57.26;95393.84;4939858;28;20484;-76
2021/04/11 04:51:29;;;;;;;5.22;3.35;;;9.70;56.70;;;8.06;57.61;95396.66;4968306;28;20421;-74
2021/04/11 04:54:12;;;;;;;5.03;3.42;;;9.70;57.50;;;8.08;58.47;95399.91;5002620;28;20433;-74
2021/04/11 04:56:46;;;;;;;7.13;4.30;;;9.70;58.00;;;8.08;58.25;95399.91;5002606;28;20038;-75
2021/04/11 04:59:15;;;;;;;8.52;5.15;;;9.70;58.70;;;8.07;57.17;95398.28;5001015;28;20126;-74
2021/04/11 05:01:49;;;;;;;7.93;4.82;;;9.70;59.20;;;8.07;58.23;95409.56;4975085;28;20050;-74
2021/04/11 05:04:24;;;;;;;6.18;4.70;;;9.80;59.10;;;8.08;59.13;95395.47;4971687;28;20038;-76
2021/04/11 05:06:55;;;;;;;7.43;4.45;;;9.80;58.90;;;8.11;58.71;95399.50;4971526;28;20417;-74
2021/04/11 05:09:30;;;;;;;9.82;5.03;;;9.80;58.90;;;8.12;58.78;95401.13;4968626;28;20027;-75
2021/04/11 05:12:08;;;;;;;7.22;4.50;;;9.90;59.10;;;8.12;59.06;95398.50;4953860;28;20118;-74
2021/04/11 05:14:40;;;;;;;7.28;4.82;;;9.90;58.60;;;8.12;58.50;95386.22;4968543;28;20070;-74
2021/04/11 05:17:31;;;;;;;9.10;4.57;;;9.90;58.00;;;8.17;58.66;95390.91;4937048;28;20042;-73
2021/04/11 05:20:08;;;;;;;7.35;4.28;;;10.10;57.30;;;8.22;58.39;95391.16;4966952;28;20497;-74
2021/04/11 05:23:11;;;;;;;7.93;3.90;;;10.10;56.80;;;8.29;58.15;95390.19;4972825;28;20070;-74
2021/04/11 05:25:41;;;;;;;5.47;3.95;;;10.20;56.60;;;8.35;58.53;95395.69;4975289;28;20531;-74
2021/04/11 05:28:28;;;;;;;5.30;3.88;;;10.20;57.70;;;8.42;59.26;95392.13;4986386;28;20086;-74
2021/04/11 05:31:19;;;;;;;6.80;4.38;;;10.30;57.80;;;8.50;58.75;95389.31;4995645;28;20137;-74
2021/04/11 05:33:45;;;;;;;4.95;3.90;;;10.40;57.50;;;8.55;57.61;95381.69;4972303;28;20050;-74
2021/04/11 05:36:48;;;;;;;10.23;4.43;;;10.50;57.90;;;8.64;59.11;95384.97;4950920;28;20507;-73
2021/04/11 05:39:44;;;;;;;6.85;3.92;;;10.50;57.80;;;8.70;57.68;95386.81;4985005;28;20042;-77
2021/04/11 05:42:30;;;;;;;5.68;3.53;;;10.60;55.60;;;8.79;57.10;95395.31;4983769;28;20061;-73
2021/04/11 05:45:10;;;;;;;5.97;3.33;;;10.70;54.50;;;8.87;56.86;95408.28;4981965;28;20046;-74
2021/04/11 05:47:55;;;;;;;4.93;2.95;;;10.80;54.00;;;8.97;56.47;95394.78;4983679;28;20043;-73
2021/04/11 05:50:42;;;;;;;7.28;3.45;;;10.90;53.20;;;9.04;55.76;95399.03;4970539;28;20046;-74
2021/04/11 05:53:24;;;;;;;5.57;3.42;;;11.00;52.70;;;9.13;55.03;95390.00;4983157;28;20595;-76
2021/04/11 05:56:16;;;;;;;5.90;3.20;;;11.10;52.20;;;9.24;55.90;95395.69;4954054;28;20038;-78
2021/04/11 05:58:51;;;;;;;6.20;3.20;;;11.20;52.30;;;9.30;55.37;95379.16;4969344;28;20117;-79
2021/04/11 06:01:25;;;;;;;6.05;3.00;;;11.30;52.30;;;9.38;55.37;95386.84;4986010;28;20408;-76
2021/04/11 06:04:12;;;;;;;7.35;2.90;;;11.40;52.00;;;9.47;54.62;95398.78;4985588;28;20106;-75
2021/04/11 06:07:00;;;;;;;5.82;3.38;;;11.50;51.30;;;9.55;54.05;95401.22;4969375;28;20501;-77
2021/04/11 06:09:51;;;;;;;7.53;3.15;;;11.60;50.60;;;9.65;53.23;95399.00;4965921;28;20030;-76
2021/04/11 06:12:25;;;;;;;18.48;9.68;;;11.60;49.80;;;9.75;53.32;95398.63;4982792;28;20039;-75
2021/04/11 06:15:19;;;;;;;12.10;7.53;;;11.70;49.50;;;9.83;52.72;95390.53;4969733;28;20667;-76
2021/04/11 06:17:46;;;;;;;8.88;5.43;;;11.90;48.10;;;9.93;52.81;95390.13;4984329;28;20038;-75
2021/04/11 06:20:12;;;;;;;11.00;7.28;;;12.00;47.90;;;10.03;52.46;95395.81;4985791;28;20019;-73
2021/04/11 06:23:30;;;;;;;6.32;3.47;;;12.10;48.30;;;10.14;51.69;95396.00;4952686;28;20030;-74
2021/04/11 06:26:29;;;;;;;7.60;4.22;;;12.20;48.10;;;10.27;51.32;95392.59;4985008;28;20070;-73
2021/04/11 06:29:09;;;;;;;6.15;3.80;;;12.30;47.40;;;10.35;51.36;95395.00;4952016;28;20104;-75
2021/04/11 06:31:41;;;;;;;7.37;4.20;;;12.40;46.80;;;10.40;50.86;95392.56;4968471;28;20034;-75
2021/04/11 06:34:10;;;;;;;4.82;3.47;;;12.40;46.10;;;10.45;51.68;95388.53;4950062;28;20517;-74
2021/04/11 06:36:39;;;;;;;6.38;3.33;;;12.40;47.50;;;10.49;50.87;95389.72;4975346;28;20129;-75
2021/04/11 06:39:27;;;;;;;6.30;3.80;;;12.50;48.40;;;10.54;52.20;95388.09;4974562;28;20050;-74
2021/04/11 06:42:45;;;;;;;5.72;3.45;;;12.60;48.10;;;10.61;51.34;95385.44;4998867;28;20445;-73
2021/04/11 06:45:14;;;;;;;6.68;3.72;;;12.70;47.50;;;10.66;51.23;95385.66;4984942;28;20505;-73
2021/04/11 06:48:01;;;;;;;8.10;2.90;;;12.80;47.80;;;10.69;50.47;95374.72;4953778;28;20568;-74
2021/04/11 06:50:58;;;;;;;13.70;7.65;;;12.80;45.80;;;10.79;50.61;95369.81;4966728;28;20060;-74
2021/04/11 06:54:09;;;;;;;12.52;5.75;;;13.10;45.50;;;10.97;49.83;95377.84;4976364;28;20035;-73
2021/04/11 06:56:58;;;;;;;4.82;2.78;;;13.60;44.10;;;11.16;50.13;95370.06;4972250;28;20042;-72
2021/04/11 06:59:58;;;;;;;10.40;6.22;;;13.70;42.80;;;11.44;49.08;95359.97;4989225;28;20088;-73
2021/04/11 07:03:14;;;;;;;6.17;3.60;;;14.10;42.70;;;11.73;48.62;95349.84;4972296;28;20082;-73
2021/04/11 07:06:23;;;;;;;3.88;2.40;;;14.50;42.30;;;12.05;47.37;95351.47;4969810;28;20042;-73
2021/04/11 07:09:10;;;;;;;3.83;2.45;;;14.80;40.40;;;12.29;46.42;95344.56;4990260;28;20051;-74
2021/04/11 07:11:47;;;;;;;3.20;2.28;;;15.00;39.40;;;12.55;46.56;95348.75;4975590;28;20042;-74
2021/04/11 07:14:51;;;;;;;5.95;2.45;;;15.40;39.20;;;12.88;44.96;95343.88;4971168;28;20374;-73
2021/04/11 07:17:27;;;;;;;4.32;2.25;;;15.60;38.30;;;13.15;45.31;95347.03;4989386;28;20141;-74
2021/04/11 07:20:08;;;;;;;6.65;2.50;;;16.10;38.00;;;13.43;44.13;95351.75;4988222;28;20454;-75
2021/04/11 07:23:15;;;;;;;16.55;10.45;;;16.40;37.10;;;13.72;43.49;95344.00;4988386;28;20089;-73
2021/04/11 07:26:11;;;;;;;5.90;3.60;;;16.60;36.40;;;13.94;43.69;95345.09;4967633;28;20042;-74
2021/04/11 07:28:48;;;;;;;5.00;3.63;;;16.70;36.80;;;14.14;43.64;95341.31;4969340;28;20049;-74
2021/04/11 07:31:56;;;;;;;11.05;6.78;;;16.80;36.50;;;14.34;42.10;95339.94;4966074;28;20070;-76
2021/04/11 07:35:11;;;;;;;8.60;3.55;;;17.10;36.20;;;14.63;41.88;95340.84;4990242;28;20058;-76
2021/04/11 07:38:02;;;;;;;5.20;2.70;;;17.60;35.30;;;14.90;42.23;95342.97;4991821;28;20047;-74
2021/04/11 07:40:57;;;;;;;4.10;2.17;;;17.90;35.10;;;15.15;42.29;95343.47;4979699;28;20039;-74
2021/04/11 07:43:49;;;;;;;5.57;4.10;;;18.00;34.70;;;15.46;41.48;95346.72;4971179;28;20378;-74
2021/04/11 07:46:24;;;;;;;6.93;3.65;;;18.50;35.20;;;15.73;41.56;95345.13;4986506;28;20126;-76
2021/04/11 07:49:34;;;;;;;7.90;4.25;;;18.70;33.60;;;15.98;40.69;95335.97;4970937;28;20070;-74
2021/04/11 07:52:44;;;;;;;3.90;2.30;;;18.70;33.00;;;16.18;38.56;95341.59;4968202;28;20105;-74
2021/04/11 07:55:48;;;;;;;7.78;4.50;;;18.90;33.10;;;16.30;39.46;95334.38;4967796;28;20118;-76
2021/04/11 07:58:42;;;;;;;10.90;8.00;;;18.90;33.10;;;16.41;41.24;95330.00;4991797;28;20062;-74
2021/04/11 08:01:25;;;;;;;4.95;3.40;;;19.10;34.30;;;16.43;41.15;95334.00;4977264;28;20035;-75
2021/04/11 08:04:08;;;;;;;7.32;2.80;;;19.10;34.50;;;16.51;41.33;95338.09;4990497;28;20165;-75
2021/04/11 08:06:44;;;;;;;4.32;2.60;;;19.10;34.90;;;16.56;41.54;95337.38;4988861;28;20478;-75
2021/04/11 08:09:40;;;;;;;7.15;2.60;;;19.20;35.10;;;16.58;39.63;95338.72;4991725;28;20069;-75
2021/04/11 08:12:23;;;;;;;8.70;5.70;;;19.10;33.50;;;16.55;40.48;95347.19;5002931;28;20039;-75
2021/04/11 08:15:27;;;;;;;9.45;6.38;;;19.10;33.80;;;16.53;40.67;95344.78;5005436;28;20293;-75
2021/04/11 08:18:13;;;;;;;5.72;3.90;;;19.00;35.50;;;16.54;40.88;95342.94;4984569;28;20188;-75
2021/04/11 08:21:00;;;;;;;5.25;3.17;;;19.00;36.40;;;16.58;41.09;95340.59;4990811;28;20035;-75
2021/04/11 08:24:15;;;;;;;4.25;2.50;;;19.10;36.30;;;16.56;41.16;95337.38;4989410;28;20399;-74
2021/04/11 08:27:45;;;;;;;4.28;2.35;;;19.10;35.30;;;16.56;41.69;95345.34;4974733;28;20023;-74
2021/04/11 08:30:47;;;;;;;4.72;2.70;;;19.10;37.40;;;16.57;42.45;95336.31;4968270;28;20027;-74
2021/04/11 08:33:22;;;;;;;20.85;14.18;;;19.10;38.10;;;16.62;43.35;95336.38;4965879;28;20053;-74
2021/04/11 08:36:33;;;;;;;8.13;4.57;;;19.20;38.40;;;16.62;43.03;95337.19;4976860;28;20096;-75
2021/04/11 08:40:00;;;;;;;6.13;3.63;;;19.10;37.70;;;16.68;42.86;95335.44;5004173;28;20034;-75
2021/04/11 08:42:51;;;;;;;5.13;2.58;;;19.30;37.80;;;16.88;41.28;95329.56;4969955;28;20439;-75
2021/04/11 08:45:44;;;;;;;5.18;2.60;;;19.50;36.50;;;17.07;39.77;95337.00;4974058;28;20053;-76
2021/04/11 08:48:57;;;;;;;9.50;2.47;;;19.70;33.80;;;17.40;40.63;95332.56;4982493;28;20034;-77
2021/04/11 08:51:49;;;;;;;6.05;2.80;;;20.20;34.00;;;17.74;40.20;95320.72;4986892;28;20034;-76
2021/04/11 08:54:31;;;;;;;6.22;4.00;;;20.80;34.40;;;18.24;38.84;95330.16;4961278;28;20125;-75
2021/04/11 08:57:53;;;;;;;10.30;4.10;;;21.40;31.90;;;18.59;37.44;95326.13;4967572;28;20122;-75
2021/04/11 09:00:25;;;;;;;5.78;2.80;;;21.50;30.70;;;18.87;38.48;95316.97;4975941;28;20077;-76
2021/04/11 09:03:22;;;;;;;4.25;3.08;;;21.90;29.10;;;19.31;35.06;95330.72;4970095;28;20142;-76
2021/04/11 09:06:28;;;;;;;4.60;3.20;;;22.50;28.80;;;19.62;36.23;95333.50;4987024;28;20035;-76
2021/04/11 09:09:16;;;;;;;6.10;3.70;;;22.80;29.60;;;20.11;34.69;95329.25;4974971;28;20047;-75
2021/04/11 09:12:05;;;;;;;3.60;2.30;;;23.50;27.40;;;20.62;34.03;95329.25;4968812;28;20047;-77
2021/04/11 09:15:16;;;;;;;3.65;2.08;;;24.10;26.50;;;21.15;32.31;95334.16;4987273;28;20559;-76
2021/04/11 09:18:24;;;;;;;4.35;2.15;;;24.50;25.40;;;21.76;32.43;95337.34;4984279;28;20081;-76
2021/04/11 09:21:18;;;;;;;5.18;2.45;;;25.20;25.20;;;22.33;32.56;95335.84;4980852;28;20073;-78
2021/04/11 09:24:08;;;;;;;4.10;2.72;;;25.70;25.50;;;22.70;30.46;95335.25;4978757;28;20031;-76
2021/04/11 09:26:40;;;;;;;10.30;8.43;;;25.80;23.50;;;22.91;30.79;95325.13;4952297;28;20030;-78
2021/04/11 09:29:31;;;;;;;4.90;2.67;;;25.90;24.10;;;23.17;30.37;95334.47;4981989;28;20049;-74
2021/04/11 09:32:39;;;;;;;4.15;2.33;;;26.10;24.40;;;23.58;29.62;95339.34;4983087;28;20115;-76
2021/04/11 09:35:48;;;;;;;4.20;2.40;;;26.50;23.30;;;23.95;29.25;95332.38;4974828;28;20034;-75
2021/04/11 09:38:48;;;;;;;12.00;8.57;;;27.00;23.50;;;24.35;28.53;95322.91;4975333;28;20026;-76
2021/04/11 09:41:43;;;;;;;;;;;27.30;22.50;;;24.61;27.58;95328.63;4999953;28;20065;-75
2021/04/11 09:44:17;;;;;;;4.15;2.20;;;27.60;21.30;;;24.92;27.96;95318.91;4979027;28;19925;-77
2021/04/11 09:47:11;;;;;;;4.28;1.70;;;27.90;21.70;;;25.23;27.06;95323.72;4986606;28;20038;-75
2021/04/11 09:50:37;;;;;;;4.82;2.00;;;28.20;21.40;;;25.56;26.62;95317.06;4984957;28;20393;-79
2021/04/11 09:53:36;;;;;;;4.75;2.63;;;28.40;20.90;;;25.81;25.72;95313.06;4982696;28;20148;-78
2021/04/11 09:56:19;;;;;;;2.85;1.90;;;28.60;21.10;;;25.90;26.05;95315.81;4984766;28;20058;-75
2021/04/11 09:59:07;;;;;;;4.55;3.40;;;28.70;20.80;;;26.01;26.15;95302.88;4969891;28;20035;-75
2021/04/11 10:01:41;;;;;;;3.65;2.40;;;28.90;20.50;;;26.23;25.30;95306.38;4986658;28;20089;-75
2021/04/11 10:04:15;;;;;;;4.90;2.15;;;29.10;20.30;;;26.45;25.93;95299.41;5001622;28;20085;-75
2021/04/11 10:07:02;;;;;;;2.35;1.75;;;29.60;20.70;;;26.70;25.12;95306.03;4998911;28;20030;-75
2021/04/11 10:10:09;;;;;;;2.78;1.77;;;29.80;20.10;;;27.04;24.67;95302.72;4980831;28;20113;-76
2021/04/11 10:12:44;;;;;;;3.40;1.50;;;30.50;20.00;;;27.25;24.40;95295.63;4986742;28;20357;-75
2021/04/11 10:16:14;;;;;;;3.28;1.95;;;30.60;19.10;;;27.62;24.85;95288.91;4966347;28;20034;-76
2021/04/11 10:18:51;;;;;;;4.63;1.83;;;31.10;18.80;;;27.96;26.18;95288.09;4982025;28;20066;-75
2021/04/11 10:21:41;;;;;;;4.93;2.67;;;32.00;18.40;;;28.20;23.90;95293.00;4975876;28;20066;-74
2021/04/11 10:24:50;;;;;;;5.70;2.10;;;32.40;17.70;;;28.50;23.03;95285.81;4983081;28;20092;-75
2021/04/11 10:27:28;;;;;;;3.45;1.75;;;33.00;17.20;;;28.83;24.05;95277.13;4990841;28;20476;-73
2021/04/11 10:29:54;;;;;;;2.35;1.50;;;33.70;17.30;;;29.16;24.68;95269.97;4950119;28;20101;-74
2021/04/11 10:32:47;;;;;;;5.80;1.90;;;34.20;16.50;;;29.40;22.66;95273.97;4984139;28;20031;-74
2021/04/11 10:35:58;;;;;;;4.70;1.95;;;34.70;16.20;;;29.77;22.79;95273.09;4985710;28;20043;-75
2021/04/11 10:38:51;;;;;;;4.38;2.58;;;35.10;15.90;;;29.99;22.23;95276.59;4944507;29;20581;-74
2021/04/11 10:42:09;;;;;;;4.40;1.95;;;35.40;15.60;;;30.17;22.04;95272.63;4984676;28;20438;-75
2021/04/11 10:45:06;;;;;;;8.32;4.28;;;35.60;15.20;;;30.31;21.48;95270.41;5002571;28;20041;-74
2021/04/11 10:47:55;;;;;;;4.47;2.00;;;35.80;15.00;;;30.42;21.88;95266.16;4992037;28;20055;-74
2021/04/11 10:50:39;;;;;;;3.88;1.88;;;36.00;15.00;;;30.34;20.48;95269.75;4979885;28;20040;-75
2021/04/11 10:53:35;;;;;;;7.30;3.95;;;35.50;14.00;;;30.42;20.13;95255.28;4970104;28;20404;-75
2021/04/11 10:56:33;;;;;;;2.65;1.58;;;35.80;14.00;;;30.52;20.37;95264.13;4966412;28;20070;-76
2021/04/11 10:59:52;;;;;;;2.38;1.30;;;35.70;14.40;;;30.63;20.26;95249.81;4983941;28;20046;-77
2021/04/11 11:02:58;;;;;;;2.03;1.52;;;36.00;14.50;;;30.81;20.73;95252.34;4976545;28;20378;-75
2021/04/11 11:05:45;;;;;;;1.50;1.25;;;36.60;14.20;;;31.04;20.53;95256.19;4986507;28;20381;-74
2021/04/11 11:08:27;;;;;;;4.00;1.50;;;37.00;13.80;;;31.23;19.91;95252.91;4983657;28;20555;-73
2021/04/11 11:11:02;;;;;;;3.75;1.58;;;37.10;13.50;;;31.38;19.58;95250.28;4976313;28;20034;-73
2021/04/11 11:13:48;;;;;;;2.10;1.40;;;37.00;13.10;;;31.52;19.81;95241.00;4996987;28;20035;-74
2021/04/11 11:16:26;;;;;;;2.85;1.17;;;37.20;13.70;;;31.59;19.67;95241.97;4999117;28;20358;-73
2021/04/11 11:19:27;;;;;;;1.88;1.15;;;37.50;13.30;;;31.79;19.03;95244.91;4985658;28;20057;-74
2021/04/11 11:22:22;;;;;;;1.30;0.90;;;37.60;13.10;;;32.07;18.31;95239.47;4983949;28;20512;-74
2021/04/11 11:25:33;;;;;;;2.58;1.30;;;38.00;13.00;;;32.26;18.33;95242.34;4984576;28;20046;-75
2021/04/11 11:28:39;;;;;;;2.72;2.25;;;38.10;12.40;;;32.31;18.26;95244.81;4964500;28;20041;-74